Sedan, Minnesota
Current Conditions -  °F | °C
As of 6:13 AM on Friday 28 Nov 2014 (Local Time) from KGHW Reporting Station
Clear Clear  
Wind Chill: -5°   Ceiling: Unl
Heat Index:   Visibility: 10mi
Dew Point:   Wind: 9mph
Humidity: 79%   Direction: 110°ESE
Pressure: 29.94"   Gusts: NA
Location:  45.6105°N, 95.373°W
Report Text: KGHW 281213Z AUTO 11008KT 10SM CLR M13/M16 A2994 RMK AO2
Loading
Personal Weather Stations






























Interactive Weather Map New forecast layout! Learn more

10-Day Weather Forecast

Advertisements
Track Severe Weather on mobile